Time;durP1;ratioP1;P1;durP2;ratioP2;P2;SDS_P1;SDS_P2;PMS_P1;PMS_P2;Temp;Humidity;BMP_temperature;BMP_pressure;BME280_temperature;BME280_humidity;BME280_pressure;Samples;Min_cycle;Max_cycle;Signal;HPM_P1;HPM_P2
2023/02/10 00:01:57;;;;;;;43.10;26.67;;;6.40;99.90;;;;;;5044133;28;20187;-72
2023/02/10 00:04:23;;;;;;;56.27;32.17;;;6.50;99.90;;;;;;5042867;28;20214;-72
2023/02/10 00:06:48;;;;;;;55.90;29.27;;;6.50;99.90;;;;;;5040739;28;20187;-72
2023/02/10 00:09:14;;;;;;;47.10;27.83;;;6.50;99.90;;;;;;5021253;28;20223;-72
2023/02/10 00:12:13;;;;;;;67.83;31.47;;;6.50;99.90;;;;;;5037344;28;20277;-73
2023/02/10 00:14:31;;;;;;;40.40;26.80;;;6.50;99.90;;;;;;5045199;28;20241;-73
2023/02/10 00:16:57;;;;;;;50.30;29.23;;;6.50;99.90;;;;;;5050688;28;20473;-73
2023/02/10 00:19:25;;;;;;;52.37;29.73;;;6.50;99.90;;;;;;5020218;28;20188;-74
2023/02/10 00:21:51;;;;;;;47.13;28.27;;;6.50;99.90;;;;;;5034529;28;20971;-72
2023/02/10 00:24:16;;;;;;;48.57;31.70;;;6.40;99.90;;;;;;5036368;28;20489;-78
2023/02/10 00:26:42;;;;;;;52.50;29.30;;;6.40;99.90;;;;;;5039762;28;20442;-76
2023/02/10 00:29:07;;;;;;;49.40;29.00;;;6.50;99.90;;;;;;5039783;28;20233;-76
2023/02/10 00:31:33;;;;;;;49.97;29.30;;;6.50;99.90;;;;;;5041496;28;20325;-76
2023/02/10 00:33:59;;;;;;;52.30;28.60;;;6.50;99.90;;;;;;5040515;28;20187;-76
2023/02/10 00:36:24;;;;;;;49.83;29.67;;;6.50;99.90;;;;;;5038737;28;20538;-77
2023/02/10 00:38:51;;;;;;;49.43;30.10;;;6.40;99.90;;;;;;5036943;28;20202;-76
2023/02/10 00:41:18;;;;;;;57.43;31.17;;;6.40;99.90;;;;;;5048300;28;20182;-74
2023/02/10 00:43:44;;;;;;;53.15;36.20;;;6.50;99.90;;;;;;5049149;28;20880;-73
2023/02/10 00:46:14;;;;;;;47.20;30.77;;;6.50;99.90;;;;;;5051167;28;20534;-72
2023/02/10 00:48:40;;;;;;;50.40;31.80;;;6.60;99.90;;;;;;5032013;28;20940;-72
2023/02/10 00:51:06;;;;;;;64.40;31.63;;;6.60;99.90;;;;;;5047588;28;20433;-73
2023/02/10 00:53:33;;;;;;;50.67;29.50;;;6.60;99.90;;;;;;5049753;28;20535;-73
2023/02/10 00:55:58;;;;;;;50.03;28.83;;;6.60;99.90;;;;;;5049858;28;20441;-72
2023/02/10 00:58:25;;;;;;;46.53;29.90;;;6.50;99.90;;;;;;5050245;28;20469;-72
2023/02/10 01:00:51;;;;;;;50.20;29.20;;;6.50;99.90;;;;;;5049912;28;20181;-72
2023/02/10 01:03:16;;;;;;;50.30;30.67;;;6.50;99.90;;;;;;5048844;28;21079;-73
2023/02/10 01:05:43;;;;;;;54.93;30.00;;;6.50;99.90;;;;;;5048763;28;20434;-73
2023/02/10 01:08:09;;;;;;;47.77;29.73;;;6.50;99.90;;;;;;5047555;28;20225;-73
2023/02/10 01:10:35;;;;;;;55.73;29.27;;;6.50;99.90;;;;;;5047142;28;20417;-73
2023/02/10 01:13:02;;;;;;;49.30;32.03;;;6.40;99.90;;;;;;5044206;28;20178;-73
2023/02/10 01:15:28;;;;;;;54.57;30.90;;;6.40;99.90;;;;;;5046761;28;20488;-73
2023/02/10 01:17:53;;;;;;;56.73;32.60;;;6.40;99.90;;;;;;5047581;28;20915;-73
2023/02/10 01:20:19;;;;;;;47.33;29.47;;;6.40;99.90;;;;;;5048434;28;20582;-73
2023/02/10 01:22:44;;;;;;;52.20;30.77;;;6.40;99.90;;;;;;5030700;28;20191;-73
2023/02/10 01:25:10;;;;;;;54.30;31.37;;;6.40;99.90;;;;;;5049113;28;20214;-72
2023/02/10 01:27:36;;;;;;;50.47;30.27;;;6.50;99.90;;;;;;5049184;28;20190;-72
2023/02/10 01:30:02;;;;;;;51.00;32.07;;;6.40;99.90;;;;;;5050763;28;20171;-71
2023/02/10 01:32:28;;;;;;;48.50;29.10;;;6.40;99.90;;;;;;5051175;28;20230;-72
2023/02/10 01:34:53;;;;;;;55.67;32.00;;;6.40;99.90;;;;;;5052357;28;20425;-73
2023/02/10 01:37:19;;;;;;;51.30;31.83;;;6.40;99.90;;;;;;5049003;28;20875;-71
2023/02/10 01:39:44;;;;;;;53.80;30.70;;;6.40;99.90;;;;;;5034910;28;20176;-72
2023/02/10 01:42:14;;;;;;;57.07;31.70;;;6.40;99.90;;;;;;5035462;28;20172;-75
2023/02/10 01:44:40;;;;;;;56.00;32.23;;;6.40;99.90;;;;;;5051750;28;20175;-75
2023/02/10 01:47:06;;;;;;;55.23;32.83;;;6.40;99.90;;;;;;5040536;28;20572;-75
2023/02/10 01:49:39;;;;;;;51.33;31.67;;;6.40;99.90;;;;;;5039390;28;20187;-76
2023/02/10 01:52:09;;;;;;;55.60;30.47;;;6.30;99.90;;;;;;5041988;28;20425;-76
2023/02/10 01:54:43;;;;;;;59.90;34.30;;;6.30;99.90;;;;;;5044284;28;20457;-76
2023/02/10 01:57:10;;;;;;;50.03;31.23;;;6.30;99.90;;;;;;5042003;28;20499;-76
2023/02/10 01:59:38;;;;;;;60.40;34.47;;;6.20;99.90;;;;;;5040341;28;20847;-76
2023/02/10 02:02:06;;;;;;;55.20;31.97;;;6.20;99.90;;;;;;5038447;28;20421;-76
2023/02/10 02:04:54;;;;;;;53.70;32.20;;;6.20;99.90;;;;;;5038331;28;20440;-76
2023/02/10 02:07:27;;;;;;;53.33;30.50;;;6.10;99.90;;;;;;5036083;28;20442;-75
2023/02/10 02:09:55;;;;;;;58.13;31.40;;;6.10;99.90;;;;;;5053902;28;20429;-74
2023/02/10 02:12:47;;;;;;;61.00;32.53;;;6.10;99.90;;;;;;5039071;28;20438;-75
2023/02/10 02:15:23;;;;;;;55.70;31.50;;;6.10;99.90;;;;;;5045894;28;20465;-74
2023/02/10 02:18:02;;;;;;;49.50;30.90;;;6.10;99.90;;;;;;5047915;28;20473;-74
2023/02/10 02:20:49;;;;;;;54.43;30.20;;;6.20;99.90;;;;;;5046116;28;20413;-74
2023/02/10 02:23:24;;;;;;;58.77;32.90;;;6.10;99.90;;;;;;5028913;28;20430;-72
2023/02/10 02:26:12;;;;;;;62.03;32.70;;;6.10;99.90;;;;;;5048161;28;20525;-71
2023/02/10 02:29:15;;;;;;;55.13;30.90;;;6.10;99.90;;;;;;5039898;28;20786;-72
2023/02/10 02:31:48;;;;;;;53.10;33.40;;;6.20;99.90;;;;;;5052114;28;20889;-72
2023/02/10 02:34:22;;;;;;;59.20;32.27;;;6.20;99.90;;;;;;5035735;28;20488;-74
2023/02/10 02:37:02;;;;;;;53.60;30.03;;;6.30;99.90;;;;;;5036006;28;20562;-74
2023/02/10 02:39:28;;;;;;;60.47;34.17;;;6.20;99.90;;;;;;5038334;28;20437;-74
2023/02/10 02:42:22;;;;;;;56.70;32.40;;;6.20;99.90;;;;;;5039847;28;20422;-72
2023/02/10 02:45:00;;;;;;;70.17;31.87;;;6.20;99.90;;;;;;5039136;28;20227;-77
2023/02/10 02:47:47;;;;;;;55.27;32.70;;;6.10;99.90;;;;;;5042949;28;20449;-79
2023/02/10 02:50:26;;;;;;;57.60;31.50;;;6.20;99.90;;;;;;5045971;28;20453;-78
2023/02/10 02:53:28;;;;;;;59.33;31.83;;;6.20;99.90;;;;;;5041422;28;20441;-77
2023/02/10 02:56:02;;;;;;;53.60;31.60;;;6.20;99.90;;;;;;5049633;28;20460;-73
2023/02/10 02:58:53;;;;;;;54.03;32.90;;;6.10;99.90;;;;;;5049065;28;20860;-73
2023/02/10 03:01:26;;;;;;;55.83;31.37;;;6.10;99.90;;;;;;5036003;28;20422;-72
2023/02/10 03:03:57;;;;;;;53.80;32.23;;;6.10;99.90;;;;;;5053300;28;20463;-72
2023/02/10 03:06:23;;;;;;;60.20;31.63;;;6.10;99.90;;;;;;5051526;28;20777;-72
2023/02/10 03:08:49;;;;;;;53.10;31.23;;;6.10;99.90;;;;;;5046346;28;20425;-77
2023/02/10 03:11:14;;;;;;;58.13;32.03;;;6.10;99.90;;;;;;5040764;28;20605;-75
2023/02/10 03:13:40;;;;;;;55.80;32.43;;;6.10;99.90;;;;;;5042837;28;20187;-76
2023/02/10 03:16:06;;;;;;;51.60;32.60;;;6.00;99.90;;;;;;5043267;28;20250;-74
2023/02/10 03:18:31;;;;;;;55.30;33.60;;;5.90;99.90;;;;;;5045038;28;20223;-74
2023/02/10 03:20:57;;;;;;;59.77;33.60;;;5.90;99.90;;;;;;5046515;28;20180;-74
2023/02/10 03:23:23;;;;;;;57.93;34.00;;;5.90;99.90;;;;;;5048494;28;20192;-74
2023/02/10 03:25:48;;;;;;;53.17;31.60;;;5.80;99.90;;;;;;5050153;28;20179;-73
2023/02/10 03:28:15;;;;;;;65.67;35.40;;;5.70;99.90;;;;;;5035482;28;20258;-76
2023/02/10 03:30:48;;;;;;;57.80;33.83;;;5.70;99.90;;;;;;5047874;28;20185;-76
2023/02/10 03:33:15;;;;;;;56.00;33.33;;;5.70;99.90;;;;;;5035788;28;20471;-73
2023/02/10 03:35:42;;;;;;;60.27;33.30;;;5.70;99.90;;;;;;5037233;28;20517;-72
2023/02/10 03:38:07;;;;;;;59.03;34.33;;;5.80;99.90;;;;;;5038807;28;20574;-71
2023/02/10 05:30:59;;;;;;;61.00;34.50;;;4.50;99.90;;;;;;5751162;23;21039;-73
2023/02/10 05:33:24;;;;;;;64.83;35.47;;;4.50;99.90;;;;;;5025819;28;20431;-75
2023/02/10 05:35:50;;;;;;;63.37;32.50;;;4.50;99.90;;;;;;5024345;28;20186;-72
2023/02/10 05:38:15;;;;;;;67.67;36.33;;;4.50;99.90;;;;;;5030085;28;20708;-75
2023/02/10 05:40:41;;;;;;;63.83;33.97;;;4.50;99.90;;;;;;5023668;28;20190;-69
2023/02/10 05:43:08;;;;;;;70.13;36.90;;;4.50;99.90;;;;;;5017535;28;20283;-72
2023/02/10 05:45:34;;;;;;;63.43;35.63;;;4.50;99.90;;;;;;5015909;28;20188;-72
2023/02/10 05:47:59;;;;;;;62.17;33.37;;;4.40;99.90;;;;;;5016329;28;20439;-72
2023/02/10 05:50:25;;;;;;;60.90;36.90;;;4.40;99.90;;;;;;5018346;28;20546;-73
2023/02/10 05:52:50;;;;;;;57.47;35.10;;;4.40;99.90;;;;;;5019597;28;20184;-72
2023/02/10 05:55:16;;;;;;;60.33;34.50;;;4.50;99.90;;;;;;5021657;28;20190;-72
2023/02/10 05:57:41;;;;;;;62.97;34.40;;;4.50;99.90;;;;;;5023020;28;20265;-72
2023/02/10 06:00:07;;;;;;;72.10;33.13;;;4.50;99.90;;;;;;5024656;28;20191;-73
2023/02/10 06:02:33;;;;;;;61.03;31.27;;;4.50;99.90;;;;;;5027406;28;20250;-73
2023/02/10 06:04:59;;;;;;;75.63;35.43;;;4.70;99.90;;;;;;5028127;28;20437;-73
2023/02/10 06:07:24;;;;;;;57.23;33.40;;;4.70;99.90;;;;;;5031852;28;20186;-74
2023/02/10 06:09:50;;;;;;;56.67;33.00;;;4.60;99.90;;;;;;5029392;28;20196;-74
2023/02/10 06:12:15;;;;;;;63.20;34.77;;;4.50;99.90;;;;;;5020609;28;20185;-73
2023/02/10 06:14:41;;;;;;;60.67;33.87;;;4.50;99.90;;;;;;5031772;28;20222;-73
2023/02/10 06:17:10;;;;;;;59.90;34.90;;;4.40;99.90;;;;;;5031321;28;20215;-73
2023/02/10 06:19:39;;;;;;;63.53;34.93;;;4.40;99.90;;;;;;5030311;28;20287;-72
2023/02/10 06:22:06;;;;;;;67.10;37.67;;;4.40;99.90;;;;;;5028052;28;20528;-72
2023/02/10 06:24:31;;;;;;;57.73;34.03;;;4.40;99.90;;;;;;5026551;28;20434;-72
2023/02/10 06:26:57;;;;;;;68.87;34.40;;;4.40;99.90;;;;;;5024641;28;20431;-73
2023/02/10 06:29:23;;;;;;;65.90;36.33;;;4.30;99.90;;;;;;5028549;28;20190;-73
2023/02/10 06:31:48;;;;;;;60.43;34.13;;;4.30;99.90;;;;;;5027244;28;20322;-73
2023/02/10 06:34:14;;;;;;;62.17;35.23;;;4.30;99.90;;;;;;5028339;28;20249;-73
2023/02/10 06:36:39;;;;;;;57.33;32.97;;;4.30;99.90;;;;;;5029494;28;20235;-73
2023/02/10 06:39:05;;;;;;;57.37;34.27;;;4.40;99.90;;;;;;5016629;28;20571;-73
2023/02/10 06:41:31;;;;;;;72.43;36.37;;;4.40;99.90;;;;;;5020441;28;20550;-74
2023/02/10 06:43:56;;;;;;;57.63;35.07;;;4.40;99.90;;;;;;5028780;28;20226;-73
2023/02/10 06:46:22;;;;;;;65.90;34.87;;;4.40;99.90;;;;;;5029550;28;20168;-73
2023/02/10 06:48:47;;;;;;;65.97;34.70;;;4.40;99.90;;;;;;5012921;28;20270;-74
2023/02/10 06:51:13;;;;;;;65.43;34.50;;;4.50;99.90;;;;;;5032011;28;20630;-74
2023/02/10 06:53:39;;;;;;;64.93;36.40;;;4.40;99.90;;;;;;5032001;28;20222;-72
2023/02/10 06:56:05;;;;;;;60.60;32.67;;;4.50;99.90;;;;;;5031604;28;20180;-71
2023/02/10 06:58:31;;;;;;;65.40;36.07;;;4.50;99.90;;;;;;5023268;28;20961;-72
2023/02/10 07:00:58;;;;;;;66.47;35.67;;;4.50;99.90;;;;;;5019297;28;20444;-72
2023/02/10 07:03:24;;;;;;;57.67;34.80;;;4.50;99.90;;;;;;5030217;28;20201;-73
2023/02/10 07:05:50;;;;;;;62.53;33.73;;;4.50;99.90;;;;;;5031511;28;20426;-72
2023/02/10 07:08:16;;;;;;;70.33;35.17;;;4.50;99.90;;;;;;5032896;28;20596;-73
2023/02/10 07:10:42;;;;;;;64.23;35.50;;;4.50;99.90;;;;;;5031173;28;20466;-73
2023/02/10 07:13:07;;;;;;;63.10;34.43;;;4.50;99.90;;;;;;5029913;28;20221;-72
2023/02/10 07:15:33;;;;;;;72.80;37.03;;;4.60;99.90;;;;;;5027962;28;20618;-73
2023/02/10 07:17:59;;;;;;;62.67;35.47;;;4.60;99.90;;;;;;5026109;28;20269;-75
2023/02/10 07:20:25;;;;;;;59.30;34.67;;;4.60;99.90;;;;;;5024620;28;20457;-73
2023/02/10 07:22:51;;;;;;;73.43;34.27;;;4.60;99.90;;;;;;5022736;28;20211;-74
2023/02/10 07:25:17;;;;;;;68.30;35.43;;;4.60;99.90;;;;;;5021121;28;20210;-74
2023/02/10 07:27:43;;;;;;;71.07;34.60;;;4.60;99.90;;;;;;5018313;28;20764;-74
2023/02/10 07:30:10;;;;;;;69.70;35.03;;;4.70;99.90;;;;;;5025171;28;20442;-74
2023/02/10 07:32:36;;;;;;;69.37;36.27;;;4.70;99.90;;;;;;5030091;28;20570;-74
2023/02/10 07:35:02;;;;;;;64.90;34.00;;;4.80;99.90;;;;;;5032356;28;20633;-75
2023/02/10 07:37:28;;;;;;;59.87;32.57;;;4.80;99.90;;;;;;5030716;28;20223;-75
2023/02/10 07:39:54;;;;;;;66.47;32.27;;;4.80;99.90;;;;;;5030386;28;20446;-75
2023/02/10 07:42:20;;;;;;;60.67;32.33;;;4.90;99.90;;;;;;5029095;28;20441;-73
2023/02/10 07:44:45;;;;;;;57.50;34.53;;;4.90;99.90;;;;;;5027297;28;20214;-73
2023/02/10 07:47:11;;;;;;;61.50;31.90;;;4.90;99.90;;;;;;5023746;28;20184;-73
2023/02/10 07:49:36;;;;;;;59.33;33.73;;;4.90;99.90;;;;;;5023766;28;20400;-73
2023/02/10 07:52:02;;;;;;;56.70;33.17;;;5.00;99.90;;;;;;5025614;28;20274;-73
2023/02/10 07:54:28;;;;;;;63.10;32.77;;;5.10;99.90;;;;;;5027411;28;20181;-73
2023/02/10 07:56:55;;;;;;;66.20;35.77;;;5.10;99.90;;;;;;5026383;28;20609;-73
2023/02/10 07:59:20;;;;;;;60.73;32.83;;;5.10;99.90;;;;;;5016328;28;20243;-74
2023/02/10 08:01:46;;;;;;;67.70;33.00;;;5.20;99.90;;;;;;5014613;28;20423;-74
2023/02/10 08:04:12;;;;;;;57.80;31.37;;;5.30;99.90;;;;;;5014327;28;20198;-74
2023/02/10 08:06:38;;;;;;;56.67;32.20;;;5.40;99.90;;;;;;5015983;28;20183;-75
2023/02/10 08:09:04;;;;;;;54.13;31.40;;;5.60;99.90;;;;;;5017749;28;20442;-74
2023/02/10 08:11:30;;;;;;;56.10;30.57;;;5.70;99.90;;;;;;5019655;28;20183;-75
2023/02/10 08:13:55;;;;;;;53.90;29.40;;;5.90;99.90;;;;;;5021242;28;20430;-75
2023/02/10 08:16:21;;;;;;;61.77;31.60;;;6.00;99.90;;;;;;5022996;28;20184;-75
2023/02/10 08:18:46;;;;;;;52.30;31.10;;;6.20;99.90;;;;;;5024510;28;20295;-74
2023/02/10 08:21:12;;;;;;;60.27;33.10;;;6.30;99.90;;;;;;5026566;28;20279;-74
2023/02/10 08:23:37;;;;;;;57.23;31.10;;;6.40;99.90;;;;;;5028242;28;20334;-75
2023/02/10 08:26:05;;;;;;;52.90;29.80;;;6.50;99.90;;;;;;5029691;28;20188;-74
2023/02/10 08:28:31;;;;;;;55.33;29.47;;;6.50;99.90;;;;;;5031619;28;20627;-74
2023/02/10 08:31:02;;;;;;;49.07;28.33;;;6.60;99.90;;;;;;5032353;28;20652;-73
2023/02/10 08:33:27;;;;;;;51.87;30.10;;;6.60;99.90;;;;;;5015468;28;20992;-73
2023/02/10 08:35:53;;;;;;;49.37;28.50;;;6.70;99.90;;;;;;5016951;28;20469;-73
2023/02/10 08:38:19;;;;;;;49.10;29.93;;;6.80;99.90;;;;;;5018578;28;20220;-73
2023/02/10 08:40:44;;;;;;;50.87;32.87;;;6.80;99.90;;;;;;5020502;28;20532;-73
2023/02/10 08:43:10;;;;;;;57.70;29.60;;;6.80;99.90;;;;;;5022178;28;20632;-73
2023/02/10 08:45:38;;;;;;;64.27;34.37;;;6.80;99.90;;;;;;5023603;28;20243;-73
2023/02/10 08:48:03;;;;;;;54.43;30.33;;;6.80;99.90;;;;;;5025612;28;20196;-73
2023/02/10 08:50:29;;;;;;;56.63;31.27;;;6.80;99.90;;;;;;5027515;28;20426;-74
2023/02/10 08:52:54;;;;;;;53.63;28.90;;;6.90;99.90;;;;;;5029297;28;20179;-74
2023/02/10 08:55:20;;;;;;;54.97;29.93;;;7.00;99.90;;;;;;5031316;28;20300;-73
2023/02/10 08:57:45;;;;;;;51.77;31.10;;;7.00;99.90;;;;;;5023993;28;20219;-74
2023/02/10 09:00:11;;;;;;;49.53;30.43;;;7.10;99.90;;;;;;5014943;28;20184;-74
2023/02/10 09:02:37;;;;;;;52.30;30.87;;;7.20;99.90;;;;;;5016228;28;20262;-74
2023/02/10 09:05:03;;;;;;;55.20;33.17;;;7.00;99.90;;;;;;5018330;28;20431;-75
2023/02/10 09:07:28;;;;;;;68.27;32.80;;;7.00;99.90;;;;;;5019885;28;20199;-74
2023/02/10 09:09:54;;;;;;;71.40;34.50;;;7.00;99.90;;;;;;5021440;28;20434;-75
2023/02/10 09:12:19;;;;;;;54.67;31.77;;;7.00;99.90;;;;;;5023169;28;20616;-75
2023/02/10 09:14:45;;;;;;;61.80;32.00;;;7.00;99.90;;;;;;5025206;28;20534;-75
2023/02/10 09:17:11;;;;;;;62.57;32.37;;;7.10;99.90;;;;;;5026847;28;20575;-75
2023/02/10 09:19:37;;;;;;;60.17;29.20;;;7.10;99.90;;;;;;5028770;28;20334;-75
2023/02/10 09:22:06;;;;;;;61.23;34.73;;;7.10;99.90;;;;;;5029250;28;20214;-74
2023/02/10 09:24:33;;;;;;;63.77;32.17;;;7.10;99.90;;;;;;5032129;28;20449;-74
2023/02/10 09:26:59;;;;;;;66.87;31.47;;;7.10;99.90;;;;;;5031176;28;20431;-75
2023/02/10 09:29:26;;;;;;;59.30;32.50;;;7.20;99.90;;;;;;5029380;28;20450;-74
2023/02/10 09:31:51;;;;;;;62.10;30.97;;;7.10;99.90;;;;;;5020178;28;20528;-75
2023/02/10 09:34:17;;;;;;;53.87;30.23;;;7.00;99.90;;;;;;5019423;28;20450;-74
2023/02/10 09:36:43;;;;;;;58.70;30.83;;;6.90;99.90;;;;;;5023846;28;20232;-75
2023/02/10 09:39:08;;;;;;;60.43;32.37;;;7.00;99.90;;;;;;5022132;28;20195;-75
2023/02/10 09:41:34;;;;;;;59.80;30.00;;;6.90;99.90;;;;;;5020230;28;20526;-75
2023/02/10 09:44:14;;;;;;;63.40;31.67;;;6.90;99.90;;;;;;5018318;28;20651;-75
2023/02/10 09:47:16;;;;;;;53.47;30.60;;;7.00;99.90;;;;;;5027877;28;20172;-75
2023/02/10 09:50:15;;;;;;;63.37;32.07;;;7.00;99.90;;;;;;5029160;28;20503;-75
2023/02/10 09:53:20;;;;;;;57.47;31.43;;;7.00;99.90;;;;;;5015271;28;20946;-75
2023/02/10 09:56:02;;;;;;;58.37;30.30;;;7.00;99.90;;;;;;5033217;28;20442;-75
2023/02/10 09:58:37;;;;;;;56.83;33.43;;;7.00;99.90;;;;;;5020625;28;20474;-75
2023/02/10 10:01:15;;;;;;;57.70;30.87;;;7.00;99.90;;;;;;5029400;28;20959;-75
2023/02/10 10:03:59;;;;;;;60.53;32.60;;;7.00;99.90;;;;;;5024221;28;20456;-75
2023/02/10 10:06:33;;;;;;;69.13;30.67;;;7.10;99.90;;;;;;5025605;28;20434;-74
2023/02/10 10:09:34;;;;;;;55.40;31.30;;;7.10;99.90;;;;;;5027572;28;20437;-75
2023/02/10 10:12:00;;;;;;;57.47;30.90;;;7.00;99.90;;;;;;5017862;28;20451;-74
2023/02/10 10:14:29;;;;;;;63.37;30.80;;;7.00;99.90;;;;;;5019587;28;20431;-75
2023/02/10 10:17:32;;;;;;;72.20;35.43;;;6.90;99.90;;;;;;5017390;28;20577;-74
2023/02/10 10:20:22;;;;;;;54.27;32.57;;;7.00;99.90;;;;;;5016180;28;20461;-74
2023/02/10 10:23:07;;;;;;;63.03;32.47;;;7.00;99.90;;;;;;5017533;28;20428;-74
2023/02/10 10:25:57;;;;;;;60.60;31.07;;;7.30;99.90;;;;;;5019967;28;20855;-74
2023/02/10 10:28:41;;;;;;;55.67;29.07;;;7.30;99.90;;;;;;5020376;28;20427;-73
2023/02/10 10:31:14;;;;;;;56.03;30.43;;;7.30;99.90;;;;;;5026761;28;20510;-74
2023/02/10 10:33:51;;;;;;;55.70;31.27;;;7.40;99.90;;;;;;5025368;28;20437;-73
2023/02/10 10:36:20;;;;;;;55.37;30.03;;;7.50;99.90;;;;;;5023117;28;20427;-75
2023/02/10 10:38:51;;;;;;;59.60;31.90;;;7.50;99.90;;;;;;5025561;28;20510;-74
2023/02/10 10:41:18;;;;;;;61.00;30.87;;;7.50;99.90;;;;;;5030705;28;20430;-74
2023/02/10 10:43:49;;;;;;;56.00;29.40;;;7.60;99.90;;;;;;5032294;28;20430;-74
2023/02/10 10:46:38;;;;;;;56.70;29.40;;;7.60;99.90;;;;;;5034415;28;20441;-74
2023/02/10 10:49:04;;;;;;;51.53;27.67;;;7.60;99.90;;;;;;5033200;28;20795;-74
2023/02/10 10:51:30;;;;;;;58.97;29.03;;;7.70;99.90;;;;;;5018485;28;20486;-74
2023/02/10 10:53:57;;;;;;;47.93;28.70;;;7.70;99.90;;;;;;5020129;28;20803;-74
2023/02/10 10:56:32;;;;;;;51.73;28.33;;;7.80;99.90;;;;;;5021822;28;20215;-74
2023/02/10 10:58:59;;;;;;;60.20;30.10;;;8.00;99.90;;;;;;5023199;28;20473;-74
2023/02/10 11:01:40;;;;;;;49.83;30.17;;;8.00;99.90;;;;;;5025152;28;20434;-74
2023/02/10 11:04:28;;;;;;;50.77;27.87;;;8.20;99.90;;;;;;5027280;28;20784;-74
2023/02/10 11:06:56;;;;;;;51.37;27.40;;;8.20;99.90;;;;;;5020004;28;20434;-74
2023/02/10 11:09:31;;;;;;;58.40;28.03;;;8.20;99.90;;;;;;5026018;28;20426;-75
2023/02/10 11:12:04;;;;;;;53.47;28.40;;;8.20;99.90;;;;;;5022119;28;20486;-75
2023/02/10 11:14:40;;;;;;;48.23;27.57;;;8.30;99.90;;;;;;5015271;28;20435;-74
2023/02/10 11:17:20;;;;;;;50.93;26.43;;;8.30;99.90;;;;;;5016469;28;20893;-73
2023/02/10 11:19:54;;;;;;;49.13;26.30;;;8.40;99.90;;;;;;5019907;28;20430;-74
2023/02/10 11:22:21;;;;;;;49.73;25.23;;;8.50;99.90;;;;;;5028244;28;20433;-74
2023/02/10 11:25:01;;;;;;;48.63;25.93;;;8.50;99.90;;;;;;5026493;28;20442;-74
2023/02/10 11:27:27;;;;;;;46.10;25.70;;;8.40;99.90;;;;;;5023755;28;20429;-74
2023/02/10 11:30:02;;;;;;;46.63;25.73;;;8.50;99.90;;;;;;5025331;28;20812;-74
2023/02/10 11:32:33;;;;;;;48.60;27.47;;;8.50;99.90;;;;;;5020670;28;20263;-74
2023/02/10 11:35:02;;;;;;;50.43;27.27;;;8.60;99.90;;;;;;5019115;28;20468;-74
2023/02/10 11:37:32;;;;;;;42.33;25.97;;;8.70;99.90;;;;;;5017195;28;20463;-74
2023/02/10 11:40:01;;;;;;;43.30;26.50;;;8.80;99.90;;;;;;5015113;28;20443;-74
2023/02/10 11:42:32;;;;;;;44.97;25.53;;;8.90;99.90;;;;;;5014802;28;20518;-74
2023/02/10 11:45:00;;;;;;;44.30;24.60;;;8.80;99.90;;;;;;5016578;28;21126;-74
2023/02/10 11:47:28;;;;;;;44.83;25.27;;;9.00;99.90;;;;;;5018244;28;20495;-74
2023/02/10 11:49:54;;;;;;;45.23;26.97;;;9.10;99.90;;;;;;5019648;28;20525;-74
2023/02/10 11:52:22;;;;;;;50.33;29.43;;;8.80;99.90;;;;;;5021623;28;20518;-74
2023/02/10 11:54:50;;;;;;;44.73;26.30;;;8.80;99.90;;;;;;5023262;28;20654;-74
2023/02/10 12:01:05;;;;;;;53.73;28.57;;;9.30;99.90;;;;;;5019830;28;20541;-74
2023/02/10 12:04:07;;;;;;;44.77;29.63;;;9.30;99.90;;;;;;5017587;28;20446;-73
2023/02/10 12:06:38;;;;;;;54.77;28.60;;;9.40;99.90;;;;;;5031432;28;20975;-74
2023/02/10 12:09:25;;;;;;;46.13;29.00;;;9.40;99.90;;;;;;5014282;28;20852;-74
2023/02/10 12:12:10;;;;;;;45.97;26.23;;;9.10;99.90;;;;;;5030981;28;20481;-74
2023/02/10 12:14:48;;;;;;;49.63;28.67;;;9.00;99.90;;;;;;5006828;28;20442;-73
2023/02/10 12:17:45;;;;;;;56.20;28.57;;;9.00;99.90;;;;;;5019498;28;20498;-73
2023/02/10 12:20:13;;;;;;;52.40;27.47;;;9.10;99.90;;;;;;5020302;28;20466;-73
2023/02/10 12:23:06;;;;;;;58.73;31.20;;;9.10;99.90;;;;;;5023233;28;20488;-73
2023/02/10 12:25:51;;;;;;;52.70;30.27;;;9.20;99.90;;;;;;5025086;28;20426;-74
2023/02/10 12:28:26;;;;;;;48.87;27.67;;;9.20;99.90;;;;;;5019036;28;21027;-73
2023/02/10 12:31:14;;;;;;;39.70;25.87;;;9.30;99.90;;;;;;5029046;28;20465;-73
2023/02/10 12:33:46;;;;;;;48.80;28.50;;;9.50;99.90;;;;;;5031116;28;20434;-73
2023/02/10 12:36:34;;;;;;;44.67;24.90;;;9.60;99.90;;;;;;5024249;28;20432;-74
2023/02/10 12:39:11;;;;;;;38.90;24.03;;;9.70;99.90;;;;;;5015024;28;21032;-74
2023/02/10 12:41:52;;;;;;;46.23;26.50;;;9.90;99.90;;;;;;5016872;28;20434;-73
2023/02/10 12:44:26;;;;;;;43.80;24.73;;;9.70;99.90;;;;;;5018486;28;20442;-74
2023/02/10 12:47:27;;;;;;;44.80;26.17;;;9.70;99.90;;;;;;5020490;28;20446;-73
2023/02/10 12:50:15;;;;;;;40.53;24.43;;;9.90;99.90;;;;;;5019456;28;20438;-73
2023/02/10 12:52:46;;;;;;;41.87;25.40;;;9.80;99.90;;;;;;5024666;28;20768;-73
2023/02/10 12:55:20;;;;;;;40.23;23.60;;;9.70;99.90;;;;;;5018884;28;20435;-72
2023/02/10 12:57:52;;;;;;;36.27;25.57;;;9.60;99.90;;;;;;5017144;28;21056;-74
2023/02/10 13:00:29;;;;;;;49.80;25.53;;;9.60;99.90;;;;;;5030210;28;20446;-74
2023/02/10 13:02:58;;;;;;;44.97;23.40;;;9.60;99.90;;;;;;5013697;28;20427;-73
2023/02/10 13:05:30;;;;;;;43.87;24.67;;;9.40;99.90;;;;;;5014106;28;20446;-74
2023/02/10 13:08:02;;;;;;;49.53;25.43;;;9.50;99.90;;;;;;5015624;28;20489;-73
2023/02/10 13:10:45;;;;;;;42.20;23.73;;;9.40;99.90;;;;;;5028130;28;20453;-73
2023/02/10 13:13:13;;;;;;;48.00;24.33;;;9.50;99.90;;;;;;5019385;28;20430;-73
2023/02/10 13:15:47;;;;;;;37.67;22.47;;;9.50;99.90;;;;;;5023701;28;20464;-73
2023/02/10 13:18:22;;;;;;;39.37;22.53;;;9.30;99.90;;;;;;5022194;28;20798;-73
2023/02/10 13:21:08;;;;;;;33.00;20.37;;;9.30;99.90;;;;;;5026302;28;20982;-73
2023/02/10 13:23:49;;;;;;;39.23;21.93;;;9.40;99.90;;;;;;5026904;28;20442;-74
2023/02/10 13:26:17;;;;;;;44.57;23.83;;;9.40;99.90;;;;;;5018262;28;20453;-73
2023/02/10 13:29:00;;;;;;;40.47;23.20;;;9.40;99.90;;;;;;5018066;28;20974;-74
2023/02/10 13:31:32;;;;;;;38.07;20.90;;;9.60;99.90;;;;;;5016670;28;20471;-73
2023/02/10 13:34:26;;;;;;;40.23;19.60;;;9.70;99.90;;;;;;5018724;28;20423;-73
2023/02/10 13:37:00;;;;;;;30.87;19.80;;;9.90;99.90;;;;;;5020661;28;20580;-72
2023/02/10 13:39:30;;;;;;;35.37;18.10;;;10.10;99.90;;;;;;5029873;28;20433;-72
2023/02/10 13:42:17;;;;;;;35.17;17.40;;;10.30;99.90;;;;;;5028192;28;20438;-72
2023/02/10 13:44:44;;;;;;;31.90;18.00;;;10.40;99.90;;;;;;5026208;28;20441;-72
2023/02/10 13:47:09;;;;;;;35.20;18.00;;;10.60;99.90;;;;;;5024480;28;20433;-72
2023/02/10 13:50:02;;;;;;;32.10;17.70;;;10.70;99.90;;;;;;5022612;28;20418;-74
2023/02/10 13:52:34;;;;;;;31.97;18.97;;;10.80;99.90;;;;;;5013682;28;20199;-74
2023/02/10 13:55:09;;;;;;;29.23;18.67;;;10.90;99.90;;;;;;5018319;28;20435;-74
2023/02/10 13:57:37;;;;;;;30.43;16.67;;;10.90;99.90;;;;;;5016543;28;20462;-73
2023/02/10 14:00:26;;;;;;;23.50;16.40;;;10.70;99.90;;;;;;5017209;28;20524;-74
2023/02/10 14:03:11;;;;;;;31.77;17.50;;;10.60;99.90;;;;;;5019137;28;20419;-75
2023/02/10 14:06:00;;;;;;;28.90;16.80;;;10.60;99.90;;;;;;5027990;28;20481;-74
2023/02/10 14:08:43;;;;;;;29.63;15.47;;;10.70;99.90;;;;;;5031626;28;20441;-73
2023/02/10 14:11:14;;;;;;;31.90;16.80;;;10.70;99.90;;;;;;5032327;28;20430;-73
2023/02/10 14:13:43;;;;;;;26.33;16.70;;;10.70;99.90;;;;;;5029925;28;20434;-73
2023/02/10 14:16:14;;;;;;;32.60;16.90;;;10.80;99.90;;;;;;5031465;28;20530;-74
2023/02/10 14:18:43;;;;;;;29.50;16.90;;;10.70;99.90;;;;;;5030876;28;20497;-75
2023/02/10 14:21:12;;;;;;;26.57;17.80;;;10.50;99.90;;;;;;5030330;28;20430;-75
2023/02/10 14:23:40;;;;;;;25.60;16.37;;;10.50;99.90;;;;;;5028831;28;20522;-75
2023/02/10 14:26:14;;;;;;;36.43;16.10;;;10.50;99.90;;;;;;5025731;28;20423;-73
2023/02/10 14:28:46;;;;;;;35.60;16.37;;;10.60;99.90;;;;;;5025526;28;20433;-73
2023/02/10 14:31:28;;;;;;;26.37;16.03;;;10.50;99.90;;;;;;5026952;28;21041;-75
2023/02/10 14:34:02;;;;;;;32.60;17.80;;;10.40;99.90;;;;;;5025393;28;20422;-76
2023/02/10 14:36:28;;;;;;;26.10;16.30;;;10.40;99.90;;;;;;5023332;28;20980;-75
2023/02/10 14:38:57;;;;;;;39.73;17.07;;;10.40;99.90;;;;;;5029887;28;20580;-73
2023/02/10 14:41:24;;;;;;;30.67;17.20;;;10.40;99.90;;;;;;5030855;28;20431;-75
2023/02/10 14:43:51;;;;;;;32.93;14.83;;;10.30;99.90;;;;;;5029393;28;20435;-75
2023/02/10 14:46:23;;;;;;;29.27;17.57;;;10.30;99.90;;;;;;5028303;28;20529;-74
2023/02/10 14:48:51;;;;;;;25.57;16.00;;;10.30;99.90;;;;;;5028955;28;20499;-74
2023/02/10 14:51:22;;;;;;;37.67;17.43;;;10.30;99.90;;;;;;5023873;28;20943;-71